Time;durP1;ratioP1;P1;durP2;ratioP2;P2;SDS_P1;SDS_P2;PMS_P1;PMS_P2;Temp;Humidity;BMP_temperature;BMP_pressure;BME280_temperature;BME280_humidity;BME280_pressure;Samples;Min_cycle;Max_cycle;Signal;HPM_P1;HPM_P2
2021/05/10 00:01:56;;;;;;;2.30;1.70;;;18.90;25.00;;;;;;10448745;28;20289;-72
2021/05/10 00:06:58;;;;;;;2.40;1.80;;;18.80;24.80;;;;;;10448763;28;20259;-71
2021/05/10 00:12:02;;;;;;;2.37;1.70;;;18.70;24.90;;;;;;10452265;28;20229;-72
2021/05/10 00:17:04;;;;;;;1.80;1.70;;;18.50;25.30;;;;;;10461918;28;20311;-72
2021/05/10 00:22:07;;;;;;;2.33;1.67;;;18.20;25.30;;;;;;10451865;28;20235;-72
2021/05/10 00:27:10;;;;;;;2.23;1.87;;;18.20;25.40;;;;;;10443113;28;20251;-71
2021/05/10 00:32:12;;;;;;;1.87;1.57;;;18.20;25.90;;;;;;10453073;28;20323;-72
2021/05/10 00:37:15;;;;;;;2.23;2.00;;;18.20;25.70;;;;;;10452643;28;20232;-71
2021/05/10 00:42:18;;;;;;;2.00;1.80;;;18.10;25.70;;;;;;10449692;28;20260;-71
2021/05/10 00:47:20;;;;;;;1.80;1.47;;;18.10;26.20;;;;;;10450121;28;20229;-72
2021/05/10 00:52:22;;;;;;;2.40;1.70;;;18.10;25.90;;;;;;10457390;28;20279;-71
2021/05/10 00:57:29;;;;;;;2.27;1.50;;;18.00;25.90;;;;;;10459757;28;20308;-72
2021/05/10 01:02:31;;;;;;;2.20;2.00;;;18.00;26.20;;;;;;10442737;28;20248;-71
2021/05/10 01:07:35;;;;;;;1.50;1.40;;;18.00;26.00;;;;;;10457305;28;20253;-72
2021/05/10 01:12:39;;;;;;;2.70;1.63;;;17.90;26.10;;;;;;10446190;28;20229;-71
2021/05/10 01:17:42;;;;;;;1.63;1.53;;;17.90;26.30;;;;;;10451803;28;20225;-72
2021/05/10 01:22:47;;;;;;;3.07;1.70;;;17.90;26.30;;;;;;10443949;28;20236;-71
2021/05/10 01:27:50;;;;;;;1.70;1.60;;;17.80;26.40;;;;;;10454322;28;20312;-72
2021/05/10 01:32:53;;;;;;;2.10;1.90;;;17.80;26.20;;;;;;10460321;28;20256;-72
2021/05/10 01:37:57;;;;;;;2.93;1.40;;;17.70;26.40;;;;;;10450199;28;20221;-71
2021/05/10 01:43:00;;;;;;;1.80;1.70;;;17.60;26.50;;;;;;10445257;28;20224;-71
2021/05/10 01:48:05;;;;;;;2.10;1.60;;;17.50;26.40;;;;;;10457379;28;20248;-71
2021/05/10 01:53:09;;;;;;;1.60;1.50;;;17.40;26.90;;;;;;10437413;28;20274;-72
2021/05/10 01:58:12;;;;;;;2.10;1.90;;;17.40;26.90;;;;;;10453510;28;20317;-71
2021/05/10 02:03:15;;;;;;;2.93;2.00;;;17.30;26.80;;;;;;10452394;28;20290;-71
2021/05/10 02:08:19;;;;;;;1.80;1.70;;;17.20;27.00;;;;;;10452284;28;20245;-72
2021/05/10 02:13:23;;;;;;;2.30;2.10;;;17.10;27.30;;;;;;10456467;28;20320;-74
2021/05/10 02:18:28;;;;;;;2.27;1.73;;;16.90;27.10;;;;;;10456735;28;20220;-74
2021/05/10 02:23:33;;;;;;;1.83;1.60;;;16.90;27.60;;;;;;10456526;28;20221;-74
2021/05/10 02:28:37;;;;;;;2.70;2.00;;;16.80;27.80;;;;;;10456517;28;20249;-74
2021/05/10 02:33:39;;;;;;;2.07;1.80;;;16.60;27.40;;;;;;10456057;28;20233;-74
2021/05/10 02:38:42;;;;;;;2.00;1.73;;;16.50;27.50;;;;;;10455988;28;20315;-74
2021/05/10 02:43:45;;;;;;;3.30;1.80;;;16.40;27.80;;;;;;10455313;28;20240;-73
2021/05/10 02:48:47;;;;;;;1.70;1.60;;;16.30;27.70;;;;;;10455379;28;20229;-74
2021/05/10 02:53:51;;;;;;;2.80;1.80;;;16.30;27.80;;;;;;10455155;28;20221;-74
2021/05/10 02:58:54;;;;;;;3.23;2.00;;;16.30;28.20;;;;;;10454628;28;20316;-73
2021/05/10 03:03:56;;;;;;;2.70;2.10;;;16.30;28.10;;;;;;10454862;28;20263;-74
2021/05/10 03:08:59;;;;;;;2.00;1.90;;;16.20;28.00;;;;;;10454407;28;20257;-73
2021/05/10 03:14:02;;;;;;;3.47;2.30;;;16.10;28.20;;;;;;10453125;28;20312;-73
2021/05/10 03:19:09;;;;;;;2.20;2.00;;;16.10;28.30;;;;;;10453761;28;20245;-73
2021/05/10 03:24:12;;;;;;;2.40;2.20;;;16.00;28.20;;;;;;10454368;28;20653;-73
2021/05/10 03:29:15;;;;;;;2.70;2.10;;;15.90;28.60;;;;;;10453357;28;20766;-73
2021/05/10 03:34:17;;;;;;;3.30;1.77;;;15.90;28.30;;;;;;10453802;28;20320;-73
2021/05/10 03:39:20;;;;;;;2.90;2.13;;;15.80;28.50;;;;;;10453180;28;20311;-73
2021/05/10 03:44:22;;;;;;;2.50;2.00;;;15.80;28.80;;;;;;10453444;28;20308;-74
2021/05/10 03:49:24;;;;;;;1.90;1.80;;;15.70;28.60;;;;;;10452831;28;20739;-74
2021/05/10 03:54:27;;;;;;;2.13;1.83;;;15.70;28.50;;;;;;10452739;28;20324;-74
2021/05/10 03:59:29;;;;;;;1.80;1.70;;;15.50;28.80;;;;;;10452380;28;20633;-74
2021/05/10 04:04:37;;;;;;;2.23;2.00;;;15.50;28.90;;;;;;10452705;28;20256;-73
2021/05/10 04:09:49;;;;;;;2.00;1.90;;;15.40;29.10;;;;;;10452427;28;20260;-73
2021/05/10 04:15:12;;;;;;;2.63;2.17;;;15.30;29.40;;;;;;10451500;28;20696;-74
2021/05/10 04:20:15;;;;;;;2.77;2.27;;;15.30;29.60;;;;;;10451789;28;20729;-74
2021/05/10 04:25:18;;;;;;;2.33;2.00;;;15.30;29.70;;;;;;10451571;28;20359;-74
2021/05/10 04:30:27;;;;;;;4.23;2.30;;;15.30;30.00;;;;;;10451424;28;20243;-73
2021/05/10 04:35:31;;;;;;;2.00;1.90;;;15.30;30.00;;;;;;10451157;28;20610;-74
2021/05/10 04:40:35;;;;;;;2.57;2.30;;;15.40;29.90;;;;;;10450606;28;20256;-73
2021/05/10 04:45:37;;;;;;;2.43;2.23;;;15.40;31.00;;;;;;10450750;28;20476;-74
2021/05/10 04:50:39;;;;;;;2.30;2.10;;;15.50;30.00;;;;;;10450503;28;20248;-74
2021/05/10 04:55:43;;;;;;;2.53;2.20;;;15.60;30.30;;;;;;10450559;28;20260;-74
2021/05/10 05:00:45;;;;;;;2.43;2.03;;;15.70;30.80;;;;;;10449967;28;20236;-73
2021/05/10 05:05:47;;;;;;;2.43;2.07;;;15.80;30.50;;;;;;10450006;28;20260;-73
2021/05/10 05:10:51;;;;;;;3.50;3.20;;;15.90;30.60;;;;;;10449798;28;20229;-74
2021/05/10 05:15:53;;;;;;;3.13;2.93;;;16.00;31.00;;;;;;10449748;28;20252;-73
2021/05/10 05:20:56;;;;;;;3.07;2.87;;;16.10;30.60;;;;;;10449594;28;20700;-73
2021/05/10 05:26:00;;;;;;;5.20;3.17;;;16.20;30.40;;;;;;10449253;28;20225;-74
2021/05/10 05:31:04;;;;;;;2.80;2.57;;;16.30;31.60;;;;;;10448688;28;20253;-74
2021/05/10 05:36:07;;;;;;;2.67;2.47;;;16.40;30.90;;;;;;10449433;28;20244;-74
2021/05/10 05:41:12;;;;;;;11.43;3.17;;;16.50;31.00;;;;;;10448422;28;20322;-74
2021/05/10 05:46:15;;;;;;;5.00;2.70;;;16.60;31.40;;;;;;10449048;28;20309;-74
2021/05/10 05:51:17;;;;;;;3.20;2.90;;;16.70;31.40;;;;;;10448471;28;20781;-73
2021/05/10 05:56:21;;;;;;;2.50;2.30;;;16.80;31.40;;;;;;10448804;28;20232;-73
2021/05/10 06:01:24;;;;;;;2.77;2.33;;;16.90;31.60;;;;;;10448445;28;20220;-73
2021/05/10 06:06:27;;;;;;;2.57;2.07;;;17.10;31.20;;;;;;10448712;28;20640;-73
2021/05/10 06:11:30;;;;;;;2.60;2.27;;;17.30;31.40;;;;;;10448316;28;20290;-73
2021/05/10 06:16:33;;;;;;;2.53;2.33;;;17.50;32.20;;;;;;10461807;28;20232;-73
2021/05/10 06:21:35;;;;;;;2.53;2.30;;;17.70;32.00;;;;;;10448270;28;20316;-73
2021/05/10 06:26:40;;;;;;;2.50;2.30;;;17.90;32.10;;;;;;10448313;28;20321;-74
2021/05/10 06:31:42;;;;;;;2.50;2.30;;;18.10;32.30;;;;;;10448400;28;20328;-73
2021/05/10 06:36:44;;;;;;;1.80;1.70;;;18.40;32.20;;;;;;10448312;28;20239;-74
2021/05/10 06:41:48;;;;;;;2.03;1.87;;;18.60;31.60;;;;;;10448579;28;20330;-73
2021/05/10 06:46:50;;;;;;;2.87;2.13;;;18.80;31.70;;;;;;10448213;28;20256;-74
2021/05/10 06:51:52;;;;;;;3.70;2.20;;;19.10;31.50;;;;;;10455238;28;20243;-73
2021/05/10 06:56:56;;;;;;;4.27;2.50;;;19.30;31.50;;;;;;10454998;28;20228;-73
2021/05/10 07:01:58;;;;;;;2.33;2.13;;;19.60;32.00;;;;;;10458292;28;20684;-74
2021/05/10 07:07:07;;;;;;;3.33;2.00;;;19.80;31.50;;;;;;10450233;28;20233;-74
2021/05/10 07:12:12;;;;;;;2.27;2.07;;;20.10;32.40;;;;;;10453151;28;20233;-73
2021/05/10 07:17:14;;;;;;;2.33;1.70;;;20.30;32.40;;;;;;10452578;28;20722;-74
2021/05/10 07:22:16;;;;;;;1.53;1.43;;;20.60;32.20;;;;;;10450213;28;20232;-73
2021/05/10 07:27:20;;;;;;;2.93;1.60;;;20.90;32.40;;;;;;10458550;28;20323;-74
2021/05/10 07:32:22;;;;;;;1.80;1.70;;;21.20;32.00;;;;;;10459057;28;20229;-74
2021/05/10 07:37:25;;;;;;;1.97;1.60;;;21.40;31.70;;;;;;10451796;28;20229;-73
2021/05/10 07:42:28;;;;;;;1.77;1.50;;;21.60;31.40;;;;;;10451143;28;20233;-74
2021/05/10 07:47:32;;;;;;;2.03;1.87;;;21.90;31.80;;;;;;10464047;28;20231;-74
2021/05/10 07:52:34;;;;;;;2.70;1.60;;;22.10;31.20;;;;;;10439259;28;20229;-74
2021/05/10 07:57:37;;;;;;;3.80;1.63;;;22.30;31.40;;;;;;10452407;28;20279;-74
2021/05/10 08:02:42;;;;;;;2.00;1.80;;;22.60;31.30;;;;;;10458514;28;20228;-73
2021/05/10 08:07:44;;;;;;;2.03;1.77;;;22.90;31.20;;;;;;10450685;28;20225;-73
2021/05/10 08:12:49;;;;;;;1.93;1.33;;;23.30;30.60;;;;;;10488547;28;20320;-73
2021/05/10 08:17:51;;;;;;;1.57;1.47;;;23.60;29.90;;;;;;10492211;28;20240;-73
2021/05/10 08:23:13;;;;;;;1.90;1.40;;;24.00;29.90;;;;;;10444967;28;20229;-73
2021/05/10 08:28:17;;;;;;;2.03;1.47;;;24.40;29.40;;;;;;10451174;28;20245;-74
2021/05/10 08:33:19;;;;;;;2.53;1.40;;;24.70;29.00;;;;;;10451624;28;20327;-73
2021/05/10 08:38:22;;;;;;;1.93;1.37;;;25.10;29.00;;;;;;10450715;28;20308;-73
2021/05/10 08:43:27;;;;;;;3.27;1.43;;;25.40;28.90;;;;;;10450510;28;20229;-74
2021/05/10 08:48:29;;;;;;;1.93;1.37;;;25.80;27.50;;;;;;10447481;28;20248;-74
2021/05/10 08:53:37;;;;;;;6.03;1.10;;;26.20;27.80;;;;;;10444573;28;20240;-73
2021/05/10 08:58:42;;;;;;;2.17;1.20;;;26.50;26.80;;;;;;10446430;28;20224;-75
2021/05/10 09:03:46;;;;;;;3.07;1.50;;;26.90;26.30;;;;;;10446537;28;20256;-75
2021/05/10 09:08:50;;;;;;;1.83;1.53;;;27.20;25.50;;;;;;10446119;28;20316;-75
2021/05/10 09:13:57;;;;;;;1.43;1.13;;;27.60;24.90;;;;;;10439686;28;20323;-75
2021/05/10 09:19:00;;;;;;;2.23;1.30;;;27.80;24.50;;;;;;10454523;28;20236;-75
2021/05/10 09:24:20;;;;;;;1.30;1.30;;;28.10;24.00;;;;;;10446183;28;20251;-75
2021/05/10 09:29:43;;;;;;;1.60;1.40;;;28.40;23.90;;;;;;10449656;28;20746;-76
2021/05/10 09:34:45;;;;;;;1.53;1.33;;;28.60;23.50;;;;;;10448434;28;20248;-75
2021/05/10 09:39:47;;;;;;;1.30;1.20;;;28.80;23.40;;;;;;10452745;28;20235;-74
2021/05/10 09:44:53;;;;;;;1.93;1.40;;;28.90;23.10;;;;;;10453883;28;20248;-75
2021/05/10 09:49:55;;;;;;;1.50;1.40;;;29.10;22.00;;;;;;10454930;28;20237;-75
2021/05/10 09:55:00;;;;;;;3.13;1.40;;;29.30;22.50;;;;;;10453109;28;20252;-75
2021/05/10 10:00:16;;;;;;;4.13;1.30;;;29.40;21.50;;;;;;10464361;28;20701;-75
2021/05/10 10:05:19;;;;;;;2.70;1.40;;;29.60;20.90;;;;;;10462650;28;20293;-75
2021/05/10 10:10:21;;;;;;;1.67;1.47;;;29.80;21.00;;;;;;10455247;28;20263;-75
2021/05/10 10:15:25;;;;;;;1.83;1.33;;;29.90;21.10;;;;;;10455435;28;20260;-75
2021/05/10 10:20:28;;;;;;;1.53;1.20;;;30.10;21.20;;;;;;10454293;28;20249;-75
2021/05/10 10:25:31;;;;;;;1.77;1.50;;;30.20;21.20;;;;;;10459114;28;20228;-75
2021/05/10 10:30:59;;;;;;;1.40;1.30;;;30.40;20.50;;;;;;10453481;28;20232;-75
2021/05/10 10:36:03;;;;;;;3.30;1.30;;;30.50;19.70;;;;;;10466426;28;20250;-75
2021/05/10 10:41:26;;;;;;;2.43;1.50;;;30.60;20.10;;;;;;10458342;28;20260;-75
2021/05/10 10:46:31;;;;;;;2.07;1.30;;;30.70;20.00;;;;;;10456560;28;20259;-75
2021/05/10 10:51:52;;;;;;;1.73;1.30;;;30.90;18.90;;;;;;10463886;28;20703;-75
2021/05/10 10:56:58;;;;;;;1.40;1.30;;;31.00;19.40;;;;;;10460384;28;20712;-75
2021/05/10 11:02:16;;;;;;;1.50;1.40;;;31.00;19.00;;;;;;10449507;28;20236;-75
2021/05/10 11:07:52;;;;;;;1.90;1.30;;;31.10;19.30;;;;;;10459559;28;20348;-75
2021/05/10 11:12:55;;;;;;;1.30;1.20;;;31.20;18.80;;;;;;10458064;28;20315;-75
2021/05/10 11:17:58;;;;;;;2.23;1.30;;;31.30;18.40;;;;;;10457646;28;20601;-75
2021/05/10 11:23:30;;;;;;;1.33;1.23;;;31.30;18.00;;;;;;10454218;28;20324;-75
2021/05/10 11:28:48;;;;;;;1.50;1.37;;;31.40;18.40;;;;;;10444062;28;20304;-72
2021/05/10 11:34:09;;;;;;;2.30;1.50;;;31.50;18.00;;;;;;10446881;28;20360;-72
2021/05/10 11:39:15;;;;;;;2.07;1.40;;;31.50;16.90;;;;;;10452933;28;20231;-72
2021/05/10 11:44:23;;;;;;;1.20;1.20;;;31.50;17.20;;;;;;10456631;28;20264;-72
2021/05/10 11:49:33;;;;;;;1.60;1.33;;;31.50;16.50;;;;;;10457973;28;20274;-72
2021/05/10 11:54:36;;;;;;;1.67;1.57;;;31.50;16.70;;;;;;10454985;28;20312;-72
2021/05/10 11:59:43;;;;;;;1.83;1.30;;;31.60;17.30;;;;;;10441797;28;20235;-71
2021/05/10 12:04:51;;;;;;;2.97;1.30;;;31.70;16.80;;;;;;10451164;28;20228;-72
2021/05/10 12:09:57;;;;;;;1.30;1.20;;;31.70;16.80;;;;;;10440098;28;20323;-72
2021/05/10 12:15:07;;;;;;;1.87;1.30;;;31.80;16.60;;;;;;10447050;28;20260;-73
2021/05/10 12:20:13;;;;;;;2.30;1.20;;;31.90;16.40;;;;;;10444216;28;20551;-72
2021/05/10 12:25:21;;;;;;;1.80;1.20;;;31.90;15.80;;;;;;10441208;28;20341;-73
2021/05/10 12:30:29;;;;;;;1.33;1.23;;;32.10;15.50;;;;;;10444356;28;20697;-77
2021/05/10 12:35:36;;;;;;;2.57;1.10;;;32.10;15.40;;;;;;10448928;28;20221;-75
2021/05/10 12:40:39;;;;;;;1.40;1.30;;;32.10;15.20;;;;;;10463695;28;20320;-74
2021/05/10 12:45:43;;;;;;;2.23;1.20;;;32.20;14.90;;;;;;10455606;28;20248;-74
2021/05/10 12:50:48;;;;;;;2.03;1.17;;;32.20;14.70;;;;;;10453291;28;20284;-75
2021/05/10 12:55:59;;;;;;;2.30;1.30;;;32.20;14.60;;;;;;10449886;28;20312;-74
2021/05/10 13:01:11;;;;;;;2.60;1.53;;;32.30;14.00;;;;;;10449400;28;20264;-74
2021/05/10 13:06:20;;;;;;;2.30;1.30;;;32.30;14.70;;;;;;10448899;28;20244;-74
2021/05/10 13:11:24;;;;;;;1.63;1.13;;;32.40;13.00;;;;;;10449022;28;20299;-74
2021/05/10 13:16:44;;;;;;;1.30;1.20;;;32.40;14.20;;;;;;10448848;28;20640;-74
2021/05/10 13:27:30;;;;;;;3.13;1.30;;;32.40;14.20;;;;;;10473346;28;20224;-74
2021/05/10 13:32:38;;;;;;;1.40;1.20;;;32.40;14.30;;;;;;10490374;28;20310;-74
2021/05/10 13:37:59;;;;;;;1.23;1.00;;;32.50;13.80;;;;;;10489910;28;20319;-74
2021/05/10 13:43:07;;;;;;;2.10;1.10;;;32.50;14.00;;;;;;10463053;28;20237;-74
2021/05/10 13:48:09;;;;;;;1.73;1.53;;;32.60;13.90;;;;;;10447917;28;20221;-74
2021/05/10 13:53:12;;;;;;;1.80;1.30;;;32.60;13.60;;;;;;10451787;28;20232;-74
2021/05/10 13:58:14;;;;;;;2.73;1.30;;;32.60;13.20;;;;;;10489516;28;20232;-75
2021/05/10 14:03:17;;;;;;;1.40;1.30;;;32.60;13.20;;;;;;10492252;28;20711;-74
2021/05/10 14:08:20;;;;;;;2.53;1.40;;;32.60;13.30;;;;;;10453786;28;20225;-75
2021/05/10 14:13:22;;;;;;;2.03;1.30;;;32.60;13.20;;;;;;10455854;28;20307;-74
2021/05/10 14:18:27;;;;;;;1.43;1.30;;;32.60;13.50;;;;;;10455764;28;20228;-74
2021/05/10 14:23:30;;;;;;;2.40;1.30;;;32.60;13.10;;;;;;10455511;28;20248;-74
2021/05/10 14:28:33;;;;;;;1.30;1.20;;;32.50;12.90;;;;;;10455096;28;20213;-74
2021/05/10 14:33:36;;;;;;;1.40;1.30;;;32.50;12.90;;;;;;10454886;28;20926;-76
2021/05/10 14:38:39;;;;;;;1.60;1.40;;;32.50;13.30;;;;;;10467402;28;20213;-75
2021/05/10 14:43:42;;;;;;;1.30;1.20;;;32.50;13.10;;;;;;10450327;28;20283;-76
2021/05/10 14:48:45;;;;;;;1.40;1.30;;;32.40;13.30;;;;;;10456816;28;20658;-75
2021/05/10 14:53:50;;;;;;;1.53;1.30;;;32.30;13.10;;;;;;10459365;28;20311;-76
2021/05/10 14:58:52;;;;;;;1.73;1.17;;;32.30;13.20;;;;;;10454409;28;20728;-76
2021/05/10 15:03:54;;;;;;;1.50;1.30;;;32.30;13.70;;;;;;10464743;28;20704;-76
2021/05/10 15:09:02;;;;;;;1.47;1.30;;;32.30;13.50;;;;;;10458395;28;20225;-76
2021/05/10 15:14:05;;;;;;;1.63;1.43;;;32.20;13.30;;;;;;10446087;28;20366;-76
2021/05/10 15:19:07;;;;;;;1.40;1.30;;;32.20;13.70;;;;;;10452823;28;20241;-76
2021/05/10 15:24:10;;;;;;;1.17;1.10;;;32.20;13.40;;;;;;10453834;28;20264;-76
2021/05/10 15:29:17;;;;;;;1.63;1.40;;;32.10;13.10;;;;;;10453492;28;20307;-76
2021/05/10 15:34:19;;;;;;;2.20;1.20;;;32.10;12.90;;;;;;10456254;28;20316;-76
2021/05/10 15:39:23;;;;;;;2.33;1.50;;;32.00;13.10;;;;;;10451464;28;20237;-76
2021/05/10 15:44:26;;;;;;;1.50;1.40;;;32.00;13.20;;;;;;10454213;28;20228;-76
2021/05/10 15:49:28;;;;;;;2.50;1.50;;;32.00;13.40;;;;;;10451152;28;20651;-76
2021/05/10 15:54:31;;;;;;;2.07;1.40;;;31.90;13.30;;;;;;10457642;28;20310;-76
2021/05/10 15:59:33;;;;;;;3.43;1.60;;;31.90;13.70;;;;;;10450817;28;20792;-76
2021/05/10 16:04:36;;;;;;;1.33;1.23;;;32.00;14.00;;;;;;10446674;28;20225;-76
2021/05/10 16:09:39;;;;;;;1.70;1.40;;;32.00;14.70;;;;;;10451115;28;20220;-76
2021/05/10 16:14:41;;;;;;;2.53;1.60;;;31.90;15.70;;;;;;10457434;28;20784;-76
2021/05/10 16:19:44;;;;;;;1.60;1.50;;;31.90;15.20;;;;;;10452820;28;20235;-76
2021/05/10 16:24:47;;;;;;;3.47;1.97;;;31.70;15.10;;;;;;10447203;28;20225;-76
2021/05/10 16:29:50;;;;;;;3.77;1.90;;;31.50;15.50;;;;;;10449691;28;20319;-76
2021/05/10 16:34:52;;;;;;;2.70;1.90;;;31.20;15.90;;;;;;10444692;28;20245;-76
2021/05/10 16:39:55;;;;;;;2.60;2.40;;;30.70;16.40;;;;;;10450049;28;20233;-76
2021/05/10 16:44:57;;;;;;;2.43;2.23;;;30.40;16.80;;;;;;10456417;28;20638;-76
2021/05/10 16:49:59;;;;;;;5.10;3.60;;;30.10;17.10;;;;;;10450990;28;20243;-75
2021/05/10 16:55:04;;;;;;;4.47;2.07;;;29.90;17.50;;;;;;10452141;28;20239;-75
2021/05/10 17:00:07;;;;;;;3.20;2.10;;;29.60;18.00;;;;;;10452799;28;20679;-75
2021/05/10 17:05:10;;;;;;;3.47;1.87;;;29.40;18.00;;;;;;10450557;28;20256;-75
2021/05/10 17:10:17;;;;;;;3.00;1.80;;;29.20;18.20;;;;;;10444226;28;20598;-76
2021/05/10 17:15:20;;;;;;;2.30;2.10;;;29.00;18.60;;;;;;10450015;28;20343;-76
2021/05/10 17:20:22;;;;;;;2.20;2.00;;;28.80;18.90;;;;;;10447879;28;20229;-76
2021/05/10 17:25:26;;;;;;;2.90;1.80;;;28.60;19.10;;;;;;10446982;28;20290;-76
2021/05/10 17:30:28;;;;;;;2.20;1.97;;;28.40;19.40;;;;;;10445330;28;20304;-76
2021/05/10 17:35:31;;;;;;;2.37;1.93;;;28.20;19.40;;;;;;10444986;28;20510;-76
2021/05/10 17:40:34;;;;;;;2.27;2.07;;;28.20;19.60;;;;;;10456105;28;20259;-76
2021/05/10 17:45:37;;;;;;;3.30;1.97;;;28.10;19.90;;;;;;10448598;28;20239;-76
2021/05/10 17:50:39;;;;;;;1.93;1.83;;;28.00;19.60;;;;;;10445458;28;20244;-76
2021/05/10 17:55:43;;;;;;;4.53;1.77;;;28.00;20.00;;;;;;10440578;28;20348;-77
2021/05/10 18:00:46;;;;;;;4.80;2.20;;;27.90;20.00;;;;;;10439870;28;20675;-75
2021/05/10 18:05:48;;;;;;;4.60;2.00;;;27.80;20.00;;;;;;10449218;28;20605;-76
2021/05/10 18:10:52;;;;;;;3.47;1.87;;;27.60;19.90;;;;;;10449296;28;20233;-76
2021/05/10 18:15:58;;;;;;;2.23;2.03;;;27.60;20.00;;;;;;10446145;28;20253;-76
2021/05/10 18:21:00;;;;;;;3.27;1.80;;;27.50;20.30;;;;;;10441306;28;20237;-76
2021/05/10 18:26:08;;;;;;;2.13;2.03;;;27.40;20.10;;;;;;10443005;28;20225;-76
2021/05/10 18:31:10;;;;;;;3.50;2.00;;;27.40;20.60;;;;;;10432368;28;20218;-76
2021/05/10 18:36:22;;;;;;;3.57;2.10;;;27.30;20.40;;;;;;10446263;28;20261;-76
2021/05/10 18:41:26;;;;;;;2.27;2.00;;;27.30;20.80;;;;;;10445189;28;20656;-74
2021/05/10 18:46:30;;;;;;;1.90;1.80;;;27.20;21.10;;;;;;10449496;28;20697;-74
2021/05/10 18:51:32;;;;;;;3.57;2.20;;;27.00;21.10;;;;;;10453859;28;20228;-74
2021/05/10 18:56:35;;;;;;;3.43;2.10;;;27.00;21.20;;;;;;10454720;28;20224;-74
2021/05/10 19:01:38;;;;;;;2.40;2.00;;;26.90;21.40;;;;;;10457190;28;20294;-74
2021/05/10 19:06:42;;;;;;;2.10;1.97;;;26.80;21.40;;;;;;10453776;28;20332;-74
2021/05/10 19:11:46;;;;;;;2.97;1.77;;;26.60;21.70;;;;;;10444927;28;20263;-74
2021/05/10 19:16:49;;;;;;;2.57;2.17;;;26.30;22.00;;;;;;10449871;28;20713;-73
2021/05/10 19:21:53;;;;;;;3.07;2.07;;;26.00;22.20;;;;;;10441049;28;20296;-71
2021/05/10 19:26:58;;;;;;;2.00;1.90;;;25.90;22.70;;;;;;10443669;28;20236;-72
2021/05/10 19:32:00;;;;;;;1.83;1.73;;;25.80;23.00;;;;;;10443220;28;20228;-71
2021/05/10 19:37:03;;;;;;;2.80;2.30;;;25.70;22.90;;;;;;10451637;28;20228;-72
2021/05/10 19:42:06;;;;;;;4.40;2.30;;;25.60;23.00;;;;;;10421133;28;20311;-72
2021/05/10 19:47:13;;;;;;;3.00;2.10;;;25.60;23.40;;;;;;10417105;28;20232;-72
2021/05/10 19:57:50;;;;;;;2.10;1.90;;;25.30;23.30;;;;;;10441318;28;20224;-72
2021/05/10 20:02:57;;;;;;;2.67;2.20;;;25.20;23.60;;;;;;10431968;28;20312;-72
2021/05/10 20:08:00;;;;;;;3.17;2.00;;;25.10;23.70;;;;;;10445180;28;20233;-72
2021/05/10 20:13:03;;;;;;;2.30;2.13;;;25.00;23.80;;;;;;10449907;28;20237;-72
2021/05/10 20:18:06;;;;;;;2.70;2.50;;;24.80;24.10;;;;;;10453902;28;20347;-72
2021/05/10 20:23:08;;;;;;;4.33;1.90;;;24.70;24.10;;;;;;10450750;28;20324;-71
2021/05/10 20:28:12;;;;;;;2.10;2.00;;;24.60;24.00;;;;;;10451525;28;20253;-71
2021/05/10 20:33:14;;;;;;;2.13;1.90;;;24.40;24.50;;;;;;10439584;28;20233;-72
2021/05/10 20:38:21;;;;;;;2.03;1.77;;;24.30;24.30;;;;;;10455146;28;20240;-72
2021/05/10 20:43:24;;;;;;;2.87;1.90;;;24.20;24.40;;;;;;10446898;28;20233;-72
2021/05/10 20:48:28;;;;;;;2.57;1.90;;;24.20;24.80;;;;;;10450273;28;20227;-72
2021/05/10 20:53:30;;;;;;;2.53;1.80;;;24.20;24.80;;;;;;10448828;28;20295;-72
2021/05/10 20:58:38;;;;;;;1.70;1.60;;;24.10;24.90;;;;;;10446905;28;20231;-72
2021/05/10 21:03:44;;;;;;;1.80;1.70;;;24.10;25.10;;;;;;10448853;28;20233;-72
2021/05/10 21:08:46;;;;;;;1.90;1.70;;;23.90;25.10;;;;;;10432393;28;20584;-71
2021/05/10 21:13:49;;;;;;;1.87;1.60;;;23.80;25.20;;;;;;10449627;28;20260;-72
2021/05/10 21:18:52;;;;;;;3.80;2.50;;;23.80;25.50;;;;;;10436989;28;20233;-71
2021/05/10 21:23:54;;;;;;;2.50;2.20;;;23.80;25.50;;;;;;10451984;28;20233;-71
2021/05/10 21:28:57;;;;;;;3.07;2.10;;;23.80;25.30;;;;;;10444312;28;20253;-72
2021/05/10 21:33:59;;;;;;;2.17;1.97;;;23.80;25.40;;;;;;10447436;28;20764;-72
2021/05/10 21:39:04;;;;;;;2.30;2.10;;;23.80;25.20;;;;;;10433106;28;20296;-72
2021/05/10 21:44:10;;;;;;;1.50;1.40;;;23.70;25.40;;;;;;10441931;28;20315;-72
2021/05/10 21:49:13;;;;;;;2.27;1.57;;;23.70;25.40;;;;;;10438759;28;20327;-71
2021/05/10 21:54:19;;;;;;;1.50;1.40;;;23.60;25.20;;;;;;10444297;28;20319;-72
2021/05/10 21:59:22;;;;;;;2.37;1.43;;;23.50;25.10;;;;;;10431901;28;20234;-72
2021/05/10 22:04:24;;;;;;;1.40;1.30;;;23.50;25.40;;;;;;10445976;28;20309;-72
2021/05/10 22:09:27;;;;;;;1.47;1.27;;;23.40;25.20;;;;;;10452937;28;20251;-71
2021/05/10 22:14:31;;;;;;;1.57;1.47;;;23.30;25.40;;;;;;10435774;28;20229;-71
2021/05/10 22:19:37;;;;;;;1.83;1.30;;;23.20;25.60;;;;;;10443080;28;20233;-72
2021/05/10 22:24:45;;;;;;;1.20;1.10;;;23.10;25.40;;;;;;10446697;28;20360;-71
2021/05/10 22:29:48;;;;;;;1.37;1.30;;;23.10;25.40;;;;;;10457418;28;20286;-71
2021/05/10 22:34:51;;;;;;;3.90;1.30;;;23.00;25.60;;;;;;10463156;28;20315;-72
2021/05/10 22:39:57;;;;;;;2.50;1.30;;;22.90;25.50;;;;;;10455758;28;20256;-72
2021/05/10 22:45:04;;;;;;;1.83;1.30;;;22.80;25.60;;;;;;10449483;28;20286;-71
2021/05/10 23:06:48;;;;;;;0.97;0.97;;;22.50;25.90;;;;;;10462031;28;20260;-71
2021/05/10 23:17:13;;;;;;;0.90;0.83;;;22.40;25.80;;;;;;10459971;28;20275;-71
2021/05/10 23:22:15;;;;;;;0.83;0.80;;;22.40;25.80;;;;;;10446852;28;21012;-71
2021/05/10 23:27:18;;;;;;;1.00;0.90;;;22.30;25.70;;;;;;10460882;28;20744;-71
2021/05/10 23:32:21;;;;;;;4.57;1.03;;;22.20;25.90;;;;;;10459407;28;20230;-74
2021/05/10 23:37:24;;;;;;;1.27;1.00;;;22.10;25.80;;;;;;10446262;28;20790;-74
2021/05/10 23:42:26;;;;;;;3.03;1.10;;;22.00;25.70;;;;;;10458010;28;20311;-74
2021/05/10 23:47:32;;;;;;;0.90;0.90;;;21.90;25.70;;;;;;10469179;28;20227;-74
2021/05/10 23:52:35;;;;;;;2.00;0.80;;;21.80;26.10;;;;;;10453376;28;20602;-74
2021/05/10 23:57:37;;;;;;;0.83;0.83;;;21.70;26.10;;;;;;10460889;28;20251;-74
